sensor_id;sensor_type;location;lat;lon;timestamp;P1;durP1;ratioP1;P2;durP2;ratioP2
5125;SDS011;63008;53.112;8.896;2024-03-06T00:01:21;13.93;;;10.07;;
5125;SDS011;63008;53.112;8.896;2024-03-06T00:03:22;12.40;;;10.27;;
5125;SDS011;63008;53.112;8.896;2024-03-06T00:05:23;20.20;;;9.30;;
5125;SDS011;63008;53.112;8.896;2024-03-06T00:07:24;14.23;;;9.50;;
5125;SDS011;63008;53.112;8.896;2024-03-06T00:09:25;14.43;;;10.10;;
5125;SDS011;63008;53.112;8.896;2024-03-06T00:11:29;13.10;;;10.50;;
5125;SDS011;63008;53.112;8.896;2024-03-06T00:13:30;13.50;;;10.17;;
5125;SDS011;63008;53.112;8.896;2024-03-06T00:15:31;12.57;;;9.50;;
5125;SDS011;63008;53.112;8.896;2024-03-06T00:17:32;16.27;;;10.63;;
5125;SDS011;63008;53.112;8.896;2024-03-06T00:19:33;15.13;;;10.40;;
5125;SDS011;63008;53.112;8.896;2024-03-06T00:21:34;12.03;;;9.20;;
5125;SDS011;63008;53.112;8.896;2024-03-06T00:23:36;14.00;;;9.83;;
5125;SDS011;63008;53.112;8.896;2024-03-06T00:25:38;11.37;;;10.17;;
5125;SDS011;63008;53.112;8.896;2024-03-06T00:27:39;12.87;;;10.37;;
5125;SDS011;63008;53.112;8.896;2024-03-06T00:29:40;16.40;;;11.30;;
5125;SDS011;63008;53.112;8.896;2024-03-06T00:31:44;13.07;;;9.87;;
5125;SDS011;63008;53.112;8.896;2024-03-06T00:33:46;18.23;;;10.77;;
5125;SDS011;63008;53.112;8.896;2024-03-06T00:35:47;20.83;;;10.20;;
5125;SDS011;63008;53.112;8.896;2024-03-06T00:37:48;12.60;;;9.73;;
5125;SDS011;63008;53.112;8.896;2024-03-06T00:39:49;15.40;;;11.00;;
5125;SDS011;63008;53.112;8.896;2024-03-06T00:41:50;19.40;;;10.97;;
5125;SDS011;63008;53.112;8.896;2024-03-06T00:43:51;15.50;;;10.13;;
5125;SDS011;63008;53.112;8.896;2024-03-06T00:45:52;20.07;;;10.50;;
5125;SDS011;63008;53.112;8.896;2024-03-06T00:47:53;18.70;;;11.90;;
5125;SDS011;63008;53.112;8.896;2024-03-06T00:49:54;13.77;;;10.50;;
5125;SDS011;63008;53.112;8.896;2024-03-06T00:51:55;15.87;;;11.10;;
5125;SDS011;63008;53.112;8.896;2024-03-06T00:53:56;20.73;;;11.60;;
5125;SDS011;63008;53.112;8.896;2024-03-06T00:55:57;14.07;;;10.83;;
5125;SDS011;63008;53.112;8.896;2024-03-06T00:57:58;15.00;;;10.53;;
5125;SDS011;63008;53.112;8.896;2024-03-06T00:59:59;13.43;;;9.77;;
5125;SDS011;63008;53.112;8.896;2024-03-06T01:02:00;17.70;;;11.13;;
5125;SDS011;63008;53.112;8.896;2024-03-06T01:04:01;15.83;;;11.47;;
5125;SDS011;63008;53.112;8.896;2024-03-06T01:06:02;11.60;;;10.00;;
5125;SDS011;63008;53.112;8.896;2024-03-06T01:08:03;13.07;;;10.13;;
5125;SDS011;63008;53.112;8.896;2024-03-06T01:10:05;13.30;;;10.17;;
5125;SDS011;63008;53.112;8.896;2024-03-06T01:12:07;15.80;;;10.10;;
5125;SDS011;63008;53.112;8.896;2024-03-06T01:14:08;17.90;;;10.60;;
5125;SDS011;63008;53.112;8.896;2024-03-06T01:16:09;18.23;;;11.83;;
5125;SDS011;63008;53.112;8.896;2024-03-06T01:18:10;15.80;;;11.50;;
5125;SDS011;63008;53.112;8.896;2024-03-06T01:20:11;18.10;;;11.20;;
5125;SDS011;63008;53.112;8.896;2024-03-06T01:22:12;15.93;;;10.33;;
5125;SDS011;63008;53.112;8.896;2024-03-06T01:24:16;12.93;;;10.53;;
5125;SDS011;63008;53.112;8.896;2024-03-06T01:26:17;15.00;;;11.40;;
5125;SDS011;63008;53.112;8.896;2024-03-06T01:28:18;15.00;;;10.27;;
5125;SDS011;63008;53.112;8.896;2024-03-06T01:30:19;13.47;;;10.37;;
5125;SDS011;63008;53.112;8.896;2024-03-06T01:32:20;16.33;;;11.10;;
5125;SDS011;63008;53.112;8.896;2024-03-06T01:34:21;13.90;;;10.83;;
5125;SDS011;63008;53.112;8.896;2024-03-06T01:36:22;14.67;;;11.17;;
5125;SDS011;63008;53.112;8.896;2024-03-06T01:38:23;17.27;;;11.50;;
5125;SDS011;63008;53.112;8.896;2024-03-06T01:40:24;15.20;;;11.60;;
5125;SDS011;63008;53.112;8.896;2024-03-06T01:42:25;13.20;;;10.30;;
5125;SDS011;63008;53.112;8.896;2024-03-06T01:44:26;14.13;;;11.47;;
5125;SDS011;63008;53.112;8.896;2024-03-06T01:46:27;15.00;;;10.90;;
5125;SDS011;63008;53.112;8.896;2024-03-06T01:48:28;15.70;;;10.93;;
5125;SDS011;63008;53.112;8.896;2024-03-06T01:50:31;11.17;;;9.93;;
5125;SDS011;63008;53.112;8.896;2024-03-06T01:52:32;16.83;;;11.33;;
5125;SDS011;63008;53.112;8.896;2024-03-06T01:54:34;12.83;;;10.10;;
5125;SDS011;63008;53.112;8.896;2024-03-06T01:56:35;17.17;;;10.97;;
5125;SDS011;63008;53.112;8.896;2024-03-06T01:58:39;14.80;;;10.57;;
5125;SDS011;63008;53.112;8.896;2024-03-06T02:00:41;14.50;;;11.40;;
5125;SDS011;63008;53.112;8.896;2024-03-06T02:02:43;16.20;;;10.60;;
5125;SDS011;63008;53.112;8.896;2024-03-06T02:04:44;13.73;;;11.03;;
5125;SDS011;63008;53.112;8.896;2024-03-06T02:06:45;16.23;;;10.17;;
5125;SDS011;63008;53.112;8.896;2024-03-06T02:08:46;12.90;;;10.33;;
5125;SDS011;63008;53.112;8.896;2024-03-06T02:10:47;13.90;;;10.50;;
5125;SDS011;63008;53.112;8.896;2024-03-06T02:12:48;14.43;;;10.80;;
5125;SDS011;63008;53.112;8.896;2024-03-06T02:14:50;14.67;;;10.07;;
5125;SDS011;63008;53.112;8.896;2024-03-06T02:16:51;13.77;;;10.47;;
5125;SDS011;63008;53.112;8.896;2024-03-06T02:18:52;15.00;;;10.47;;
5125;SDS011;63008;53.112;8.896;2024-03-06T02:20:57;16.50;;;11.10;;
5125;SDS011;63008;53.112;8.896;2024-03-06T02:22:58;13.07;;;10.47;;
5125;SDS011;63008;53.112;8.896;2024-03-06T02:24:59;18.03;;;11.13;;
5125;SDS011;63008;53.112;8.896;2024-03-06T02:27:00;22.60;;;11.10;;
5125;SDS011;63008;53.112;8.896;2024-03-06T02:29:01;16.00;;;11.00;;
5125;SDS011;63008;53.112;8.896;2024-03-06T02:31:02;14.07;;;9.97;;
5125;SDS011;63008;53.112;8.896;2024-03-06T02:33:04;12.67;;;9.87;;
5125;SDS011;63008;53.112;8.896;2024-03-06T02:35:07;14.50;;;9.90;;
5125;SDS011;63008;53.112;8.896;2024-03-06T02:37:09;14.00;;;11.10;;
5125;SDS011;63008;53.112;8.896;2024-03-06T02:39:10;17.20;;;11.20;;
5125;SDS011;63008;53.112;8.896;2024-03-06T02:41:11;15.07;;;10.63;;
5125;SDS011;63008;53.112;8.896;2024-03-06T02:43:12;12.30;;;9.63;;
5125;SDS011;63008;53.112;8.896;2024-03-06T02:45:13;14.57;;;11.13;;
5125;SDS011;63008;53.112;8.896;2024-03-06T02:47:14;15.53;;;10.40;;
5125;SDS011;63008;53.112;8.896;2024-03-06T02:49:15;14.73;;;10.03;;
5125;SDS011;63008;53.112;8.896;2024-03-06T02:51:20;13.83;;;11.17;;
5125;SDS011;63008;53.112;8.896;2024-03-06T02:53:21;15.30;;;11.27;;
5125;SDS011;63008;53.112;8.896;2024-03-06T02:55:23;15.97;;;11.10;;
5125;SDS011;63008;53.112;8.896;2024-03-06T02:57:28;12.90;;;9.43;;
5125;SDS011;63008;53.112;8.896;2024-03-06T02:59:29;14.10;;;10.20;;
5125;SDS011;63008;53.112;8.896;2024-03-06T03:01:30;12.83;;;10.00;;
5125;SDS011;63008;53.112;8.896;2024-03-06T03:03:32;17.27;;;10.07;;
5125;SDS011;63008;53.112;8.896;2024-03-06T03:05:33;13.33;;;10.70;;
5125;SDS011;63008;53.112;8.896;2024-03-06T03:07:34;15.77;;;10.90;;
5125;SDS011;63008;53.112;8.896;2024-03-06T03:09:35;13.90;;;10.10;;
5125;SDS011;63008;53.112;8.896;2024-03-06T03:11:37;15.97;;;10.70;;
5125;SDS011;63008;53.112;8.896;2024-03-06T03:13:38;11.53;;;9.90;;
5125;SDS011;63008;53.112;8.896;2024-03-06T03:15:40;12.60;;;10.70;;
5125;SDS011;63008;53.112;8.896;2024-03-06T03:17:42;14.23;;;9.90;;
5125;SDS011;63008;53.112;8.896;2024-03-06T03:19:43;14.80;;;10.67;;
5125;SDS011;63008;53.112;8.896;2024-03-06T03:21:44;15.20;;;11.00;;
5125;SDS011;63008;53.112;8.896;2024-03-06T03:23:45;14.93;;;11.37;;
5125;SDS011;63008;53.112;8.896;2024-03-06T03:25:46;16.73;;;11.90;;
5125;SDS011;63008;53.112;8.896;2024-03-06T03:27:47;15.70;;;10.50;;
5125;SDS011;63008;53.112;8.896;2024-03-06T03:29:48;17.13;;;11.80;;
5125;SDS011;63008;53.112;8.896;2024-03-06T03:31:49;17.20;;;11.43;;
5125;SDS011;63008;53.112;8.896;2024-03-06T03:33:50;20.90;;;12.90;;
5125;SDS011;63008;53.112;8.896;2024-03-06T03:35:51;15.50;;;10.90;;
5125;SDS011;63008;53.112;8.896;2024-03-06T03:37:52;14.90;;;10.90;;
5125;SDS011;63008;53.112;8.896;2024-03-06T03:39:53;15.77;;;11.10;;
5125;SDS011;63008;53.112;8.896;2024-03-06T03:41:55;16.10;;;11.90;;
5125;SDS011;63008;53.112;8.896;2024-03-06T03:43:56;14.67;;;10.50;;
5125;SDS011;63008;53.112;8.896;2024-03-06T03:45:57;12.90;;;10.30;;
5125;SDS011;63008;53.112;8.896;2024-03-06T03:47:59;15.07;;;11.37;;
5125;SDS011;63008;53.112;8.896;2024-03-06T03:50:03;17.20;;;11.90;;
5125;SDS011;63008;53.112;8.896;2024-03-06T03:52:04;14.50;;;11.70;;
5125;SDS011;63008;53.112;8.896;2024-03-06T03:54:05;15.50;;;11.10;;
5125;SDS011;63008;53.112;8.896;2024-03-06T03:56:07;15.60;;;11.27;;
5125;SDS011;63008;53.112;8.896;2024-03-06T03:58:08;14.77;;;11.80;;
5125;SDS011;63008;53.112;8.896;2024-03-06T04:00:09;15.03;;;11.60;;
5125;SDS011;63008;53.112;8.896;2024-03-06T04:02:11;14.87;;;11.37;;
5125;SDS011;63008;53.112;8.896;2024-03-06T04:04:12;16.67;;;11.97;;
5125;SDS011;63008;53.112;8.896;2024-03-06T04:06:14;16.97;;;11.40;;
5125;SDS011;63008;53.112;8.896;2024-03-06T04:08:15;15.37;;;11.50;;
5125;SDS011;63008;53.112;8.896;2024-03-06T04:10:16;17.13;;;11.73;;
5125;SDS011;63008;53.112;8.896;2024-03-06T04:12:17;17.93;;;11.43;;
5125;SDS011;63008;53.112;8.896;2024-03-06T04:14:18;15.87;;;12.00;;
5125;SDS011;63008;53.112;8.896;2024-03-06T04:16:19;16.23;;;11.20;;
5125;SDS011;63008;53.112;8.896;2024-03-06T04:18:21;15.20;;;10.90;;
5125;SDS011;63008;53.112;8.896;2024-03-06T04:20:22;16.50;;;12.17;;
5125;SDS011;63008;53.112;8.896;2024-03-06T04:22:23;17.17;;;11.63;;
5125;SDS011;63008;53.112;8.896;2024-03-06T04:24:24;14.40;;;11.50;;
5125;SDS011;63008;53.112;8.896;2024-03-06T04:26:25;15.93;;;11.53;;
5125;SDS011;63008;53.112;8.896;2024-03-06T04:28:26;17.30;;;11.43;;
5125;SDS011;63008;53.112;8.896;2024-03-06T04:30:27;16.37;;;11.00;;
5125;SDS011;63008;53.112;8.896;2024-03-06T04:32:28;15.13;;;11.00;;
5125;SDS011;63008;53.112;8.896;2024-03-06T04:34:29;16.97;;;12.70;;
5125;SDS011;63008;53.112;8.896;2024-03-06T04:36:30;16.80;;;11.67;;
5125;SDS011;63008;53.112;8.896;2024-03-06T04:38:31;14.23;;;10.77;;
5125;SDS011;63008;53.112;8.896;2024-03-06T04:40:33;15.93;;;11.17;;
5125;SDS011;63008;53.112;8.896;2024-03-06T04:42:34;15.87;;;11.30;;
5125;SDS011;63008;53.112;8.896;2024-03-06T04:44:38;14.63;;;11.00;;
5125;SDS011;63008;53.112;8.896;2024-03-06T04:46:39;13.47;;;10.83;;
5125;SDS011;63008;53.112;8.896;2024-03-06T04:48:40;14.80;;;11.30;;
5125;SDS011;63008;53.112;8.896;2024-03-06T04:50:41;17.40;;;11.97;;
5125;SDS011;63008;53.112;8.896;2024-03-06T04:52:42;14.67;;;10.93;;
5125;SDS011;63008;53.112;8.896;2024-03-06T04:54:45;17.93;;;12.40;;
5125;SDS011;63008;53.112;8.896;2024-03-06T04:56:46;20.93;;;11.50;;
5125;SDS011;63008;53.112;8.896;2024-03-06T04:58:47;17.70;;;11.43;;
5125;SDS011;63008;53.112;8.896;2024-03-06T05:00:48;16.63;;;11.93;;
5125;SDS011;63008;53.112;8.896;2024-03-06T05:02:49;16.57;;;12.00;;
5125;SDS011;63008;53.112;8.896;2024-03-06T05:04:50;15.70;;;11.40;;
5125;SDS011;63008;53.112;8.896;2024-03-06T05:06:51;16.13;;;12.30;;
5125;SDS011;63008;53.112;8.896;2024-03-06T05:08:52;14.17;;;11.50;;
5125;SDS011;63008;53.112;8.896;2024-03-06T05:10:53;13.43;;;11.27;;
5125;SDS011;63008;53.112;8.896;2024-03-06T05:12:54;15.20;;;11.67;;
5125;SDS011;63008;53.112;8.896;2024-03-06T05:14:55;17.73;;;11.90;;
5125;SDS011;63008;53.112;8.896;2024-03-06T05:16:56;17.30;;;11.73;;
5125;SDS011;63008;53.112;8.896;2024-03-06T05:18:57;15.50;;;11.70;;
5125;SDS011;63008;53.112;8.896;2024-03-06T05:20:58;15.57;;;11.07;;
5125;SDS011;63008;53.112;8.896;2024-03-06T05:22:59;16.77;;;11.50;;
5125;SDS011;63008;53.112;8.896;2024-03-06T05:25:00;14.30;;;11.13;;
5125;SDS011;63008;53.112;8.896;2024-03-06T05:27:01;18.63;;;11.93;;
5125;SDS011;63008;53.112;8.896;2024-03-06T05:29:02;16.17;;;11.70;;
5125;SDS011;63008;53.112;8.896;2024-03-06T05:31:15;20.10;;;11.40;;
5125;SDS011;63008;53.112;8.896;2024-03-06T05:33:20;18.57;;;12.77;;
5125;SDS011;63008;53.112;8.896;2024-03-06T05:35:22;19.00;;;10.97;;
5125;SDS011;63008;53.112;8.896;2024-03-06T05:37:23;17.63;;;12.57;;
5125;SDS011;63008;53.112;8.896;2024-03-06T05:39:24;14.10;;;11.80;;
5125;SDS011;63008;53.112;8.896;2024-03-06T05:41:25;16.97;;;12.60;;
5125;SDS011;63008;53.112;8.896;2024-03-06T05:43:26;18.33;;;12.40;;
5125;SDS011;63008;53.112;8.896;2024-03-06T05:45:28;16.60;;;12.33;;
5125;SDS011;63008;53.112;8.896;2024-03-06T05:47:29;17.13;;;12.50;;
5125;SDS011;63008;53.112;8.896;2024-03-06T05:49:31;17.20;;;13.60;;
5125;SDS011;63008;53.112;8.896;2024-03-06T05:51:33;16.57;;;12.73;;
5125;SDS011;63008;53.112;8.896;2024-03-06T05:53:37;16.67;;;12.80;;
5125;SDS011;63008;53.112;8.896;2024-03-06T05:55:38;18.07;;;13.00;;
5125;SDS011;63008;53.112;8.896;2024-03-06T05:57:39;19.97;;;13.07;;
5125;SDS011;63008;53.112;8.896;2024-03-06T05:59:46;18.13;;;12.33;;
5125;SDS011;63008;53.112;8.896;2024-03-06T06:01:47;16.77;;;12.57;;
5125;SDS011;63008;53.112;8.896;2024-03-06T06:03:48;17.13;;;13.40;;
5125;SDS011;63008;53.112;8.896;2024-03-06T06:05:49;20.73;;;13.37;;
5125;SDS011;63008;53.112;8.896;2024-03-06T06:07:50;21.23;;;13.13;;
5125;SDS011;63008;53.112;8.896;2024-03-06T06:09:51;17.87;;;13.13;;
5125;SDS011;63008;53.112;8.896;2024-03-06T06:11:52;20.50;;;13.70;;
5125;SDS011;63008;53.112;8.896;2024-03-06T06:13:54;18.37;;;13.07;;
5125;SDS011;63008;53.112;8.896;2024-03-06T06:15:57;17.67;;;11.70;;
5125;SDS011;63008;53.112;8.896;2024-03-06T06:17:58;18.63;;;12.80;;
5125;SDS011;63008;53.112;8.896;2024-03-06T06:19:59;17.53;;;13.50;;
5125;SDS011;63008;53.112;8.896;2024-03-06T06:22:01;19.00;;;12.87;;
5125;SDS011;63008;53.112;8.896;2024-03-06T06:24:02;17.70;;;14.00;;
5125;SDS011;63008;53.112;8.896;2024-03-06T06:26:04;18.23;;;13.03;;
5125;SDS011;63008;53.112;8.896;2024-03-06T06:28:05;17.33;;;13.43;;
5125;SDS011;63008;53.112;8.896;2024-03-06T06:30:06;17.23;;;13.07;;
5125;SDS011;63008;53.112;8.896;2024-03-06T06:32:12;17.00;;;12.30;;
5125;SDS011;63008;53.112;8.896;2024-03-06T06:34:13;15.73;;;12.50;;
5125;SDS011;63008;53.112;8.896;2024-03-06T06:36:14;16.50;;;13.70;;
5125;SDS011;63008;53.112;8.896;2024-03-06T06:38:15;14.93;;;12.30;;
5125;SDS011;63008;53.112;8.896;2024-03-06T06:40:16;18.93;;;13.13;;
5125;SDS011;63008;53.112;8.896;2024-03-06T06:42:17;20.43;;;12.93;;
5125;SDS011;63008;53.112;8.896;2024-03-06T06:44:18;18.30;;;11.73;;
5125;SDS011;63008;53.112;8.896;2024-03-06T06:46:19;15.60;;;12.83;;
5125;SDS011;63008;53.112;8.896;2024-03-06T06:48:20;15.80;;;12.47;;
5125;SDS011;63008;53.112;8.896;2024-03-06T06:50:21;16.60;;;12.37;;
5125;SDS011;63008;53.112;8.896;2024-03-06T06:52:23;21.00;;;13.20;;
5125;SDS011;63008;53.112;8.896;2024-03-06T06:54:28;21.20;;;13.23;;
5125;SDS011;63008;53.112;8.896;2024-03-06T06:56:29;17.57;;;12.70;;
5125;SDS011;63008;53.112;8.896;2024-03-06T06:58:30;22.97;;;13.50;;
5125;SDS011;63008;53.112;8.896;2024-03-06T07:00:31;16.27;;;12.03;;
5125;SDS011;63008;53.112;8.896;2024-03-06T07:02:33;20.23;;;13.10;;
5125;SDS011;63008;53.112;8.896;2024-03-06T07:04:34;19.23;;;13.10;;
5125;SDS011;63008;53.112;8.896;2024-03-06T07:06:35;16.27;;;12.37;;
5125;SDS011;63008;53.112;8.896;2024-03-06T07:08:36;20.80;;;13.53;;
5125;SDS011;63008;53.112;8.896;2024-03-06T07:10:37;17.00;;;13.13;;
5125;SDS011;63008;53.112;8.896;2024-03-06T07:12:39;17.97;;;13.67;;
5125;SDS011;63008;53.112;8.896;2024-03-06T07:14:40;21.10;;;13.10;;
5125;SDS011;63008;53.112;8.896;2024-03-06T07:16:41;19.30;;;13.23;;
5125;SDS011;63008;53.112;8.896;2024-03-06T07:18:46;20.40;;;14.37;;
5125;SDS011;63008;53.112;8.896;2024-03-06T07:20:47;19.57;;;13.67;;
5125;SDS011;63008;53.112;8.896;2024-03-06T07:22:48;19.83;;;14.00;;
5125;SDS011;63008;53.112;8.896;2024-03-06T07:24:49;21.47;;;14.00;;
5125;SDS011;63008;53.112;8.896;2024-03-06T07:26:50;18.40;;;13.03;;
5125;SDS011;63008;53.112;8.896;2024-03-06T07:28:51;16.60;;;12.80;;
5125;SDS011;63008;53.112;8.896;2024-03-06T07:30:53;17.87;;;12.87;;
5125;SDS011;63008;53.112;8.896;2024-03-06T07:32:54;21.70;;;13.40;;
5125;SDS011;63008;53.112;8.896;2024-03-06T07:34:55;18.97;;;13.40;;
5125;SDS011;63008;53.112;8.896;2024-03-06T07:36:56;19.07;;;13.70;;
5125;SDS011;63008;53.112;8.896;2024-03-06T07:38:57;18.10;;;13.23;;
5125;SDS011;63008;53.112;8.896;2024-03-06T07:40:58;18.13;;;13.67;;
5125;SDS011;63008;53.112;8.896;2024-03-06T07:42:59;17.30;;;13.33;;
5125;SDS011;63008;53.112;8.896;2024-03-06T07:45:00;16.13;;;11.67;;
5125;SDS011;63008;53.112;8.896;2024-03-06T07:47:01;16.83;;;13.20;;
5125;SDS011;63008;53.112;8.896;2024-03-06T07:49:02;19.20;;;13.03;;
5125;SDS011;63008;53.112;8.896;2024-03-06T07:51:03;22.23;;;12.00;;
5125;SDS011;63008;53.112;8.896;2024-03-06T07:53:05;14.60;;;12.37;;
5125;SDS011;63008;53.112;8.896;2024-03-06T07:55:07;16.30;;;12.27;;
5125;SDS011;63008;53.112;8.896;2024-03-06T07:57:08;15.87;;;12.70;;
5125;SDS011;63008;53.112;8.896;2024-03-06T07:59:10;19.20;;;13.30;;
5125;SDS011;63008;53.112;8.896;2024-03-06T08:01:13;16.20;;;11.30;;
5125;SDS011;63008;53.112;8.896;2024-03-06T08:03:14;18.43;;;12.57;;
5125;SDS011;63008;53.112;8.896;2024-03-06T08:05:15;16.30;;;12.37;;
5125;SDS011;63008;53.112;8.896;2024-03-06T08:07:17;16.47;;;12.13;;
5125;SDS011;63008;53.112;8.896;2024-03-06T08:09:18;21.07;;;13.40;;
5125;SDS011;63008;53.112;8.896;2024-03-06T08:11:19;15.50;;;11.53;;
5125;SDS011;63008;53.112;8.896;2024-03-06T08:13:22;16.40;;;11.40;;
5125;SDS011;63008;53.112;8.896;2024-03-06T08:15:23;14.80;;;11.30;;
5125;SDS011;63008;53.112;8.896;2024-03-06T08:17:24;18.97;;;11.07;;
5125;SDS011;63008;53.112;8.896;2024-03-06T08:19:25;16.57;;;11.30;;
5125;SDS011;63008;53.112;8.896;2024-03-06T08:21:27;17.23;;;11.13;;
5125;SDS011;63008;53.112;8.896;2024-03-06T08:23:28;14.73;;;10.50;;
5125;SDS011;63008;53.112;8.896;2024-03-06T08:25:29;16.73;;;11.30;;
5125;SDS011;63008;53.112;8.896;2024-03-06T08:27:33;22.93;;;11.50;;
5125;SDS011;63008;53.112;8.896;2024-03-06T08:29:38;17.97;;;10.50;;
5125;SDS011;63008;53.112;8.896;2024-03-06T08:31:39;14.50;;;11.70;;
5125;SDS011;63008;53.112;8.896;2024-03-06T08:33:40;21.07;;;11.00;;
5125;SDS011;63008;53.112;8.896;2024-03-06T08:35:41;14.90;;;10.90;;
5125;SDS011;63008;53.112;8.896;2024-03-06T08:37:42;19.53;;;11.70;;
5125;SDS011;63008;53.112;8.896;2024-03-06T08:39:43;17.30;;;11.87;;
5125;SDS011;63008;53.112;8.896;2024-03-06T08:41:44;17.60;;;11.10;;
5125;SDS011;63008;53.112;8.896;2024-03-06T08:43:45;17.20;;;11.03;;
5125;SDS011;63008;53.112;8.896;2024-03-06T08:45:46;17.83;;;10.63;;
5125;SDS011;63008;53.112;8.896;2024-03-06T08:47:47;19.03;;;11.07;;
5125;SDS011;63008;53.112;8.896;2024-03-06T08:49:52;14.37;;;10.87;;
5125;SDS011;63008;53.112;8.896;2024-03-06T08:51:53;16.87;;;10.10;;
5125;SDS011;63008;53.112;8.896;2024-03-06T08:53:54;14.93;;;10.67;;
5125;SDS011;63008;53.112;8.896;2024-03-06T08:55:55;16.07;;;11.10;;
5125;SDS011;63008;53.112;8.896;2024-03-06T08:57:56;18.43;;;11.00;;
5125;SDS011;63008;53.112;8.896;2024-03-06T08:59:57;15.80;;;11.07;;
5125;SDS011;63008;53.112;8.896;2024-03-06T09:01:58;14.07;;;11.57;;
5125;SDS011;63008;53.112;8.896;2024-03-06T09:04:12;15.20;;;10.87;;
5125;SDS011;63008;53.112;8.896;2024-03-06T09:06:13;14.87;;;10.53;;
5125;SDS011;63008;53.112;8.896;2024-03-06T09:08:14;16.40;;;10.57;;
5125;SDS011;63008;53.112;8.896;2024-03-06T09:10:15;16.10;;;10.20;;
5125;SDS011;63008;53.112;8.896;2024-03-06T09:12:17;14.17;;;10.80;;
5125;SDS011;63008;53.112;8.896;2024-03-06T09:14:19;18.37;;;10.50;;
5125;SDS011;63008;53.112;8.896;2024-03-06T09:16:20;13.70;;;10.30;;
5125;SDS011;63008;53.112;8.896;2024-03-06T09:18:21;19.93;;;10.33;;
5125;SDS011;63008;53.112;8.896;2024-03-06T09:20:22;11.90;;;9.27;;
5125;SDS011;63008;53.112;8.896;2024-03-06T09:22:25;14.47;;;10.00;;
5125;SDS011;63008;53.112;8.896;2024-03-06T09:24:26;13.40;;;10.73;;
5125;SDS011;63008;53.112;8.896;2024-03-06T09:26:27;17.73;;;10.90;;
5125;SDS011;63008;53.112;8.896;2024-03-06T09:28:27;13.20;;;11.43;;
5125;SDS011;63008;53.112;8.896;2024-03-06T09:30:28;15.50;;;10.87;;
5125;SDS011;63008;53.112;8.896;2024-03-06T09:32:29;15.17;;;10.10;;
5125;SDS011;63008;53.112;8.896;2024-03-06T09:34:31;13.30;;;10.50;;
5125;SDS011;63008;53.112;8.896;2024-03-06T09:36:32;16.40;;;10.70;;
5125;SDS011;63008;53.112;8.896;2024-03-06T09:38:33;14.10;;;10.10;;
5125;SDS011;63008;53.112;8.896;2024-03-06T09:40:34;18.63;;;11.23;;
5125;SDS011;63008;53.112;8.896;2024-03-06T09:42:35;15.07;;;11.23;;
5125;SDS011;63008;53.112;8.896;2024-03-06T09:44:36;13.40;;;10.77;;
5125;SDS011;63008;53.112;8.896;2024-03-06T09:46:37;14.40;;;10.57;;
5125;SDS011;63008;53.112;8.896;2024-03-06T09:48:42;17.37;;;12.50;;
5125;SDS011;63008;53.112;8.896;2024-03-06T09:50:46;14.47;;;10.70;;
5125;SDS011;63008;53.112;8.896;2024-03-06T09:52:51;19.63;;;11.10;;
5125;SDS011;63008;53.112;8.896;2024-03-06T09:54:54;13.87;;;11.20;;
5125;SDS011;63008;53.112;8.896;2024-03-06T09:56:56;18.37;;;11.40;;
5125;SDS011;63008;53.112;8.896;2024-03-06T09:58:59;18.13;;;11.80;;
5125;SDS011;63008;53.112;8.896;2024-03-06T10:01:01;20.17;;;11.00;;
5125;SDS011;63008;53.112;8.896;2024-03-06T10:03:04;15.63;;;11.77;;
5125;SDS011;63008;53.112;8.896;2024-03-06T10:05:20;14.40;;;10.73;;
5125;SDS011;63008;53.112;8.896;2024-03-06T10:07:24;15.50;;;10.53;;
5125;SDS011;63008;53.112;8.896;2024-03-06T10:09:27;16.13;;;11.27;;
5125;SDS011;63008;53.112;8.896;2024-03-06T10:11:30;15.33;;;11.23;;
5125;SDS011;63008;53.112;8.896;2024-03-06T10:13:33;13.40;;;10.10;;
5125;SDS011;63008;53.112;8.896;2024-03-06T10:15:34;15.80;;;11.33;;
5125;SDS011;63008;53.112;8.896;2024-03-06T10:17:37;15.00;;;10.30;;
5125;SDS011;63008;53.112;8.896;2024-03-06T10:19:38;16.93;;;10.60;;
5125;SDS011;63008;53.112;8.896;2024-03-06T10:21:40;18.60;;;12.37;;
5125;SDS011;63008;53.112;8.896;2024-03-06T10:23:41;15.00;;;11.47;;
5125;SDS011;63008;53.112;8.896;2024-03-06T10:25:46;15.37;;;10.90;;
5125;SDS011;63008;53.112;8.896;2024-03-06T10:28:07;14.00;;;11.50;;
5125;SDS011;63008;53.112;8.896;2024-03-06T10:30:12;13.17;;;10.00;;
5125;SDS011;63008;53.112;8.896;2024-03-06T10:32:17;21.10;;;12.03;;
5125;SDS011;63008;53.112;8.896;2024-03-06T10:34:20;12.63;;;10.30;;
5125;SDS011;63008;53.112;8.896;2024-03-06T10:36:25;17.00;;;11.13;;
5125;SDS011;63008;53.112;8.896;2024-03-06T10:38:27;18.97;;;11.93;;
5125;SDS011;63008;53.112;8.896;2024-03-06T10:40:36;16.13;;;11.50;;
5125;SDS011;63008;53.112;8.896;2024-03-06T10:42:39;14.20;;;10.80;;
5125;SDS011;63008;53.112;8.896;2024-03-06T10:44:43;12.97;;;10.23;;
5125;SDS011;63008;53.112;8.896;2024-03-06T10:47:00;16.37;;;11.33;;
5125;SDS011;63008;53.112;8.896;2024-03-06T10:49:02;12.43;;;11.13;;
5125;SDS011;63008;53.112;8.896;2024-03-06T10:51:03;15.17;;;11.10;;
5125;SDS011;63008;53.112;8.896;2024-03-06T10:53:08;15.87;;;10.83;;
5125;SDS011;63008;53.112;8.896;2024-03-06T10:55:13;16.50;;;11.67;;
5125;SDS011;63008;53.112;8.896;2024-03-06T10:57:16;18.80;;;11.97;;
5125;SDS011;63008;53.112;8.896;2024-03-06T10:59:19;12.67;;;10.60;;
5125;SDS011;63008;53.112;8.896;2024-03-06T11:01:20;17.13;;;10.73;;
5125;SDS011;63008;53.112;8.896;2024-03-06T11:03:23;16.70;;;10.70;;
5125;SDS011;63008;53.112;8.896;2024-03-06T11:05:26;15.83;;;10.70;;
5125;SDS011;63008;53.112;8.896;2024-03-06T11:07:27;13.57;;;11.20;;
5125;SDS011;63008;53.112;8.896;2024-03-06T11:09:32;16.00;;;10.77;;
5125;SDS011;63008;53.112;8.896;2024-03-06T11:11:46;14.37;;;11.73;;
5125;SDS011;63008;53.112;8.896;2024-03-06T11:13:48;13.90;;;10.47;;
5125;SDS011;63008;53.112;8.896;2024-03-06T11:15:50;15.13;;;9.73;;
5125;SDS011;63008;53.112;8.896;2024-03-06T11:17:54;12.30;;;9.37;;
5125;SDS011;63008;53.112;8.896;2024-03-06T11:22:07;15.00;;;9.47;;
5125;SDS011;63008;53.112;8.896;2024-03-06T11:26:11;15.80;;;11.23;;
5125;SDS011;63008;53.112;8.896;2024-03-06T11:28:31;14.50;;;11.10;;
5125;SDS011;63008;53.112;8.896;2024-03-06T11:30:44;14.63;;;10.93;;
5125;SDS011;63008;53.112;8.896;2024-03-06T11:32:58;18.53;;;10.30;;
5125;SDS011;63008;53.112;8.896;2024-03-06T11:34:59;13.63;;;11.00;;
5125;SDS011;63008;53.112;8.896;2024-03-06T11:37:04;14.43;;;10.93;;
5125;SDS011;63008;53.112;8.896;2024-03-06T11:39:08;14.37;;;10.30;;
5125;SDS011;63008;53.112;8.896;2024-03-06T11:41:09;13.50;;;10.33;;
5125;SDS011;63008;53.112;8.896;2024-03-06T11:43:23;16.43;;;10.03;;
5125;SDS011;63008;53.112;8.896;2024-03-06T11:45:27;15.80;;;11.07;;
5125;SDS011;63008;53.112;8.896;2024-03-06T11:47:32;18.67;;;11.07;;
5125;SDS011;63008;53.112;8.896;2024-03-06T11:49:33;14.90;;;11.50;;
5125;SDS011;63008;53.112;8.896;2024-03-06T11:51:35;17.30;;;11.10;;
5125;SDS011;63008;53.112;8.896;2024-03-06T11:53:36;13.20;;;10.23;;
5125;SDS011;63008;53.112;8.896;2024-03-06T11:55:39;17.27;;;10.67;;
5125;SDS011;63008;53.112;8.896;2024-03-06T11:57:40;13.70;;;11.27;;
5125;SDS011;63008;53.112;8.896;2024-03-06T11:59:41;16.20;;;10.93;;
5125;SDS011;63008;53.112;8.896;2024-03-06T12:01:43;16.03;;;11.47;;
5125;SDS011;63008;53.112;8.896;2024-03-06T12:03:44;12.80;;;10.33;;
5125;SDS011;63008;53.112;8.896;2024-03-06T12:05:49;13.63;;;10.73;;
5125;SDS011;63008;53.112;8.896;2024-03-06T12:07:51;13.40;;;11.40;;
5125;SDS011;63008;53.112;8.896;2024-03-06T12:09:52;19.80;;;11.67;;